createdAt,value
2017-08-24T00:00:13.882Z,0
2017-08-24T00:00:54.421Z,0
2017-08-24T00:01:34.959Z,0
2017-08-24T00:02:15.503Z,0
2017-08-24T00:02:56.050Z,0
2017-08-24T00:03:36.590Z,0
2017-08-24T00:04:17.133Z,0
2017-08-24T00:04:57.674Z,0
2017-08-24T00:05:38.213Z,0
2017-08-24T00:06:18.747Z,0
2017-08-24T00:06:59.286Z,0
2017-08-24T00:07:39.828Z,0
2017-08-24T00:08:20.368Z,0
2017-08-24T00:09:00.909Z,0
2017-08-24T00:09:41.452Z,0
2017-08-24T00:10:21.994Z,0
2017-08-24T00:11:02.536Z,0
2017-08-24T00:11:43.079Z,0
2017-08-24T00:12:23.609Z,0
2017-08-24T00:13:04.160Z,0
2017-08-24T00:13:44.696Z,0
2017-08-24T00:14:25.238Z,0
2017-08-24T00:15:05.847Z,0
2017-08-24T00:15:46.317Z,0
2017-08-24T00:16:26.865Z,0
2017-08-24T00:17:07.402Z,0
2017-08-24T00:17:47.947Z,0
2017-08-24T00:18:28.484Z,0
2017-08-24T00:19:09.035Z,0
2017-08-24T00:19:49.572Z,0
2017-08-24T00:20:30.112Z,0
2017-08-24T00:21:10.720Z,0
2017-08-24T00:21:51.261Z,0
2017-08-24T00:22:31.796Z,0
2017-08-24T00:23:12.343Z,0
2017-08-24T00:23:52.880Z,0
2017-08-24T00:24:33.420Z,0
2017-08-24T00:25:13.960Z,0
2017-08-24T00:25:54.499Z,0
2017-08-24T00:26:35.039Z,0
2017-08-24T00:27:15.583Z,0
2017-08-24T00:27:56.115Z,0
2017-08-24T00:28:36.658Z,0
2017-08-24T00:29:17.196Z,0
2017-08-24T00:29:57.748Z,0
2017-08-24T00:30:38.289Z,0
2017-08-24T00:31:18.830Z,0
2017-08-24T00:31:59.369Z,0
2017-08-24T00:32:39.910Z,0
2017-08-24T00:33:20.447Z,0
2017-08-24T00:34:00.985Z,0
2017-08-24T00:34:41.527Z,0
2017-08-24T00:35:22.065Z,0
2017-08-24T00:36:02.603Z,0
2017-08-24T00:36:43.151Z,0
2017-08-24T00:37:23.688Z,0
2017-08-24T00:38:04.232Z,0
2017-08-24T00:38:44.768Z,0
2017-08-24T00:39:25.312Z,0
2017-08-24T00:40:05.852Z,0
2017-08-24T00:40:46.392Z,0
2017-08-24T00:41:26.954Z,0
2017-08-24T00:42:07.494Z,0
2017-08-24T00:42:48.030Z,0
2017-08-24T00:43:28.568Z,0
2017-08-24T00:44:09.111Z,0
2017-08-24T00:44:49.647Z,0
2017-08-24T00:45:30.192Z,0
2017-08-24T00:46:10.732Z,0
2017-08-24T00:46:51.273Z,0
2017-08-24T00:47:31.809Z,0
2017-08-24T00:48:12.351Z,0
2017-08-24T00:48:52.888Z,0
2017-08-24T00:49:33.437Z,0
2017-08-24T00:50:13.980Z,0
2017-08-24T00:50:54.517Z,0
2017-08-24T00:51:35.056Z,0
2017-08-24T00:52:15.589Z,0
2017-08-24T00:52:56.118Z,0
2017-08-24T00:53:36.659Z,0
2017-08-24T00:54:17.197Z,0
2017-08-24T00:54:57.740Z,0
2017-08-24T00:55:38.281Z,0
2017-08-24T00:56:18.824Z,0
2017-08-24T00:56:59.371Z,0
2017-08-24T00:57:39.913Z,0
2017-08-24T00:58:20.459Z,0
2017-08-24T00:59:00.996Z,0
2017-08-24T00:59:41.533Z,0
2017-08-24T01:00:22.073Z,0
2017-08-24T01:01:02.615Z,0
2017-08-24T01:01:43.149Z,0
2017-08-24T01:02:23.694Z,0
2017-08-24T01:03:04.228Z,0
2017-08-24T01:03:44.771Z,0
2017-08-24T01:04:25.315Z,0
2017-08-24T01:05:05.901Z,0
2017-08-24T01:05:46.397Z,0
2017-08-24T01:06:26.926Z,0
2017-08-24T01:07:07.463Z,0
2017-08-24T01:07:48.007Z,0
2017-08-24T01:08:28.555Z,0
2017-08-24T01:09:09.097Z,0
2017-08-24T01:09:49.637Z,0
2017-08-24T01:10:30.185Z,0
2017-08-24T01:11:10.724Z,0
2017-08-24T01:11:51.265Z,0
2017-08-24T01:12:31.794Z,0
2017-08-24T01:13:12.336Z,0
2017-08-24T01:13:52.875Z,0
2017-08-24T01:14:33.426Z,0
2017-08-24T01:15:13.966Z,0
2017-08-24T01:15:54.508Z,0
2017-08-24T01:16:35.040Z,0
2017-08-24T01:17:15.579Z,0
2017-08-24T01:17:56.116Z,0
2017-08-24T01:18:36.656Z,0
2017-08-24T01:19:17.200Z,0
2017-08-24T01:19:57.742Z,0
2017-08-24T01:20:38.281Z,0
2017-08-24T01:21:18.819Z,0
2017-08-24T01:21:59.361Z,0
2017-08-24T01:22:39.899Z,0
2017-08-24T01:23:20.437Z,0
2017-08-24T01:24:00.970Z,0
2017-08-24T01:24:41.510Z,0
2017-08-24T01:25:22.052Z,0
2017-08-24T01:26:02.592Z,0
2017-08-24T01:26:43.181Z,0
2017-08-24T01:27:23.717Z,0
2017-08-24T01:28:04.260Z,0
2017-08-24T01:28:44.798Z,0
2017-08-24T01:29:25.340Z,0
2017-08-24T01:30:05.878Z,0
2017-08-24T01:30:46.420Z,0
2017-08-24T01:31:26.961Z,0
2017-08-24T01:32:07.506Z,0
2017-08-24T01:32:48.043Z,0
2017-08-24T01:33:28.579Z,0
2017-08-24T01:34:09.118Z,0
2017-08-24T01:34:49.657Z,0
2017-08-24T01:35:30.197Z,0
2017-08-24T01:36:10.745Z,0
2017-08-24T01:36:51.283Z,0
2017-08-24T01:37:31.826Z,0
2017-08-24T01:38:12.366Z,0
2017-08-24T01:38:52.917Z,0
2017-08-24T01:39:33.450Z,0
2017-08-24T01:40:13.995Z,0
2017-08-24T01:40:54.536Z,0
2017-08-24T01:41:35.070Z,0
2017-08-24T01:42:15.625Z,0
2017-08-24T01:42:56.174Z,0
2017-08-24T01:43:36.712Z,0
2017-08-24T01:44:17.254Z,0
2017-08-24T01:44:57.793Z,0
2017-08-24T01:45:38.338Z,0
2017-08-24T01:46:18.873Z,0
2017-08-24T01:46:59.414Z,0
2017-08-24T01:47:39.946Z,0
2017-08-24T01:48:20.481Z,0
2017-08-24T01:49:01.025Z,0
2017-08-24T01:49:41.566Z,0
2017-08-24T01:50:22.110Z,0
2017-08-24T01:51:02.665Z,0
2017-08-24T01:51:43.200Z,0
2017-08-24T01:52:23.742Z,0
2017-08-24T01:53:04.280Z,0
2017-08-24T01:53:44.814Z,0
2017-08-24T01:54:25.361Z,0
2017-08-24T01:55:05.918Z,0
2017-08-24T01:55:46.442Z,0
2017-08-24T01:56:26.982Z,0
2017-08-24T01:57:07.522Z,0
2017-08-24T01:57:48.070Z,0
2017-08-24T01:58:28.608Z,0
2017-08-24T01:59:09.155Z,0
2017-08-24T01:59:49.701Z,0
2017-08-24T02:00:30.242Z,0
2017-08-24T02:01:10.774Z,0
2017-08-24T02:01:51.306Z,0
2017-08-24T02:02:31.838Z,0
2017-08-24T02:03:12.379Z,0
2017-08-24T02:03:52.926Z,0
2017-08-24T02:04:33.470Z,0
2017-08-24T02:05:14.012Z,0
2017-08-24T02:05:54.556Z,0
2017-08-24T02:06:35.095Z,0
2017-08-24T02:07:15.650Z,0
2017-08-24T02:07:56.183Z,0
2017-08-24T02:08:36.724Z,0
2017-08-24T02:09:17.263Z,0
2017-08-24T02:09:57.802Z,0
2017-08-24T02:10:38.343Z,0
2017-08-24T02:11:18.883Z,0
2017-08-24T02:11:59.420Z,0
2017-08-24T02:12:39.971Z,0
2017-08-24T02:13:20.504Z,0
2017-08-24T02:14:01.044Z,0
2017-08-24T02:14:41.580Z,0
2017-08-24T02:15:22.152Z,0
2017-08-24T02:16:02.694Z,0
2017-08-24T02:16:43.231Z,0
2017-08-24T02:17:23.765Z,0
2017-08-24T02:18:04.310Z,0
2017-08-24T02:18:44.852Z,0
2017-08-24T02:19:25.386Z,0
2017-08-24T02:20:05.928Z,0
2017-08-24T02:20:46.482Z,0
2017-08-24T02:21:27.026Z,0
2017-08-24T02:22:07.573Z,0
2017-08-24T02:22:48.121Z,0
2017-08-24T02:23:28.662Z,0
2017-08-24T02:24:09.212Z,0
2017-08-24T02:24:49.743Z,0
2017-08-24T02:25:30.280Z,0
2017-08-24T02:26:10.821Z,0
2017-08-24T02:26:51.361Z,0
2017-08-24T02:27:31.899Z,0
2017-08-24T02:28:12.437Z,0
2017-08-24T02:28:52.987Z,0
2017-08-24T02:29:33.530Z,0
2017-08-24T02:30:14.068Z,0
2017-08-24T02:30:54.608Z,0
2017-08-24T02:31:35.151Z,0
2017-08-24T02:32:15.694Z,0
2017-08-24T02:32:56.228Z,0
2017-08-24T02:33:36.770Z,0
2017-08-24T02:34:17.310Z,0
2017-08-24T02:34:57.861Z,0
2017-08-24T02:35:38.396Z,0
2017-08-24T02:36:18.944Z,0
2017-08-24T02:36:59.491Z,0
2017-08-24T02:37:40.025Z,0
2017-08-24T02:38:20.553Z,0
2017-08-24T02:39:01.090Z,0
2017-08-24T02:39:41.635Z,0
2017-08-24T02:40:22.176Z,0
2017-08-24T02:41:02.715Z,0
2017-08-24T02:41:43.263Z,0
2017-08-24T02:42:23.807Z,0
2017-08-24T02:43:04.341Z,0
2017-08-24T02:43:44.890Z,0
2017-08-24T02:44:25.432Z,0
2017-08-24T02:45:05.987Z,0
2017-08-24T02:45:46.544Z,0
2017-08-24T02:46:27.074Z,0
2017-08-24T02:47:07.616Z,0
2017-08-24T02:47:48.158Z,0
2017-08-24T02:48:28.691Z,0
2017-08-24T02:49:09.233Z,0
2017-08-24T02:49:49.771Z,0
2017-08-24T02:50:30.309Z,0
2017-08-24T02:51:10.848Z,0
2017-08-24T02:51:51.395Z,0
2017-08-24T02:52:31.942Z,0
2017-08-24T02:53:12.476Z,0
2017-08-24T02:53:53.019Z,0
2017-08-24T02:54:33.560Z,0
2017-08-24T02:55:14.197Z,0
2017-08-24T02:55:54.685Z,0
2017-08-24T02:56:35.223Z,0
2017-08-24T02:57:15.759Z,0
2017-08-24T02:57:56.303Z,0
2017-08-24T02:58:36.843Z,0
2017-08-24T02:59:17.382Z,0
2017-08-24T02:59:57.925Z,0
2017-08-24T03:00:38.465Z,0
2017-08-24T03:01:19.024Z,0
2017-08-24T03:01:59.552Z,0
2017-08-24T03:02:40.094Z,0
2017-08-24T03:03:20.637Z,0
2017-08-24T03:04:01.181Z,0
2017-08-24T03:04:41.721Z,0
2017-08-24T03:05:22.252Z,0
2017-08-24T03:06:02.785Z,0
2017-08-24T03:06:43.327Z,0
2017-08-24T03:07:23.876Z,0
2017-08-24T03:08:04.419Z,0
2017-08-24T03:08:44.956Z,0
2017-08-24T03:11:04.484Z,0
2017-08-24T03:11:45.022Z,0
2017-08-24T03:12:25.563Z,0
2017-08-24T03:13:06.102Z,0
2017-08-24T03:13:46.643Z,0
2017-08-24T03:14:27.185Z,0
2017-08-24T03:15:07.733Z,0
2017-08-24T03:15:48.273Z,0
2017-08-24T03:16:28.813Z,0
2017-08-24T03:17:09.603Z,0
2017-08-24T03:17:50.143Z,0
2017-08-24T03:18:30.674Z,0
2017-08-24T03:19:11.204Z,0
2017-08-24T03:19:51.749Z,0
2017-08-24T03:20:32.286Z,0
2017-08-24T03:21:12.819Z,0
2017-08-24T03:21:53.355Z,0
2017-08-24T03:22:33.897Z,0
2017-08-24T03:23:14.431Z,0
2017-08-24T03:23:54.964Z,0
2017-08-24T03:24:35.504Z,0
2017-08-24T03:25:16.037Z,0
2017-08-24T03:25:56.612Z,0
2017-08-24T03:26:37.140Z,0
2017-08-24T03:27:17.684Z,0
2017-08-24T03:27:58.250Z,0
2017-08-24T03:28:38.784Z,0
2017-08-24T03:29:19.341Z,0
2017-08-24T03:29:59.888Z,0
2017-08-24T03:30:40.427Z,0
2017-08-24T03:31:20.990Z,0
2017-08-24T03:32:01.528Z,0
2017-08-24T03:32:42.064Z,0
2017-08-24T03:33:22.609Z,0
2017-08-24T03:34:03.139Z,0
2017-08-24T03:34:43.668Z,0
2017-08-24T03:35:24.206Z,0
2017-08-24T03:36:04.744Z,0
2017-08-24T03:36:45.283Z,0
2017-08-24T03:37:25.820Z,0
2017-08-24T03:38:06.364Z,0
2017-08-24T03:38:46.880Z,0
2017-08-24T03:39:27.417Z,0
2017-08-24T03:40:07.954Z,0
2017-08-24T03:40:48.497Z,0
2017-08-24T03:41:29.025Z,0
2017-08-24T03:42:09.571Z,0
2017-08-24T03:42:50.219Z,0
2017-08-24T03:43:30.806Z,0
2017-08-24T03:44:11.343Z,0
2017-08-24T03:44:51.881Z,0
2017-08-24T03:45:32.414Z,0
2017-08-24T03:46:12.957Z,0
2017-08-24T03:46:53.495Z,0
2017-08-24T03:47:34.034Z,0
2017-08-24T03:48:14.566Z,0
2017-08-24T03:48:55.106Z,0
2017-08-24T03:49:35.648Z,0
2017-08-24T03:50:16.335Z,0
2017-08-24T03:50:56.913Z,0
2017-08-24T03:51:37.459Z,0
2017-08-24T03:52:17.997Z,0
2017-08-24T03:52:58.541Z,0
2017-08-24T03:53:39.162Z,0
2017-08-24T03:54:19.702Z,0
2017-08-24T03:55:00.243Z,0
2017-08-24T03:55:40.786Z,0
2017-08-24T03:56:21.325Z,0
2017-08-24T03:57:01.860Z,0
2017-08-24T03:57:42.400Z,0
2017-08-24T03:58:23.498Z,0
2017-08-24T03:59:06.894Z,0
2017-08-24T03:59:49.666Z,0
2017-08-24T04:00:32.367Z,0
2017-08-24T04:01:15.451Z,0
2017-08-24T04:03:32.549Z,0
2017-08-24T04:04:13.939Z,0
2017-08-24T04:04:54.515Z,0
2017-08-24T04:05:35.043Z,0
2017-08-24T04:06:15.580Z,0
2017-08-24T04:06:56.192Z,0
2017-08-24T04:07:36.747Z,0
2017-08-24T04:08:17.281Z,0
2017-08-24T04:08:57.819Z,0
2017-08-24T04:09:38.357Z,0
2017-08-24T04:10:18.888Z,0
2017-08-24T04:10:59.429Z,0
2017-08-24T04:11:39.958Z,0
2017-08-24T04:12:23.168Z,0
2017-08-24T04:13:04.282Z,0
2017-08-24T04:13:44.966Z,0
2017-08-24T04:14:25.502Z,0
2017-08-24T04:15:06.042Z,0
2017-08-24T04:15:46.571Z,0
2017-08-24T04:16:27.097Z,0
2017-08-24T04:17:07.631Z,0
2017-08-24T04:17:48.163Z,0
2017-08-24T04:18:28.701Z,0
2017-08-24T04:19:09.240Z,0
2017-08-24T04:19:49.775Z,0
2017-08-24T04:20:30.315Z,0
2017-08-24T04:21:12.448Z,0
2017-08-24T04:21:54.162Z,0
2017-08-24T04:22:34.699Z,0
2017-08-24T04:23:15.237Z,0
2017-08-24T04:23:55.773Z,0
2017-08-24T04:24:36.316Z,0
2017-08-24T04:25:16.855Z,0
2017-08-24T04:25:57.397Z,0
2017-08-24T04:26:37.935Z,0
2017-08-24T04:27:18.475Z,0
2017-08-24T04:27:59.017Z,0
2017-08-24T04:28:39.542Z,0
2017-08-24T04:29:20.093Z,0
2017-08-24T04:30:00.632Z,0
2017-08-24T04:30:41.172Z,0
2017-08-24T04:31:21.712Z,0
2017-08-24T04:32:02.246Z,0
2017-08-24T04:32:42.784Z,0
2017-08-24T04:33:23.321Z,0
2017-08-24T04:34:03.859Z,0
2017-08-24T04:34:44.397Z,0
2017-08-24T04:35:24.938Z,0
2017-08-24T04:36:05.478Z,0
2017-08-24T04:36:46.019Z,0
2017-08-24T04:37:26.555Z,5
2017-08-24T04:38:07.096Z,5
2017-08-24T04:38:50.503Z,5
2017-08-24T04:39:31.054Z,5
2017-08-24T04:40:11.593Z,5
2017-08-24T04:40:52.131Z,5
2017-08-24T04:41:32.674Z,5
2017-08-24T04:42:13.217Z,5
2017-08-24T04:42:53.753Z,5
2017-08-24T04:43:34.299Z,5
2017-08-24T04:44:14.830Z,5
2017-08-24T04:44:55.372Z,5
2017-08-24T04:45:35.897Z,5
2017-08-24T04:46:16.437Z,5
2017-08-24T04:46:56.971Z,5
2017-08-24T04:47:37.507Z,10
2017-08-24T04:48:18.044Z,10
2017-08-24T04:48:58.583Z,10
2017-08-24T04:49:39.131Z,10
2017-08-24T04:50:19.662Z,10
2017-08-24T04:51:00.203Z,10
2017-08-24T04:51:40.743Z,10
2017-08-24T04:52:21.276Z,10
2017-08-24T04:53:01.804Z,10
2017-08-24T04:53:42.342Z,10
2017-08-24T04:54:22.879Z,10
2017-08-24T04:55:03.417Z,10
2017-08-24T04:55:43.958Z,10
2017-08-24T04:56:24.497Z,10
2017-08-24T04:57:05.048Z,10
2017-08-24T04:57:46.639Z,15
2017-08-24T04:58:29.124Z,15
2017-08-24T04:59:09.708Z,15
2017-08-24T04:59:50.239Z,15
2017-08-24T05:00:30.786Z,15
2017-08-24T05:01:11.364Z,15
2017-08-24T05:01:51.909Z,20
2017-08-24T05:02:32.438Z,20
2017-08-24T05:03:12.965Z,20
2017-08-24T05:03:53.488Z,20
2017-08-24T05:04:34.031Z,25
2017-08-24T05:05:14.600Z,25
2017-08-24T05:05:55.096Z,25
2017-08-24T05:06:35.636Z,25
2017-08-24T05:07:16.159Z,25
2017-08-24T05:07:56.688Z,30
2017-08-24T05:08:37.235Z,30
2017-08-24T05:09:17.786Z,30
2017-08-24T05:09:58.308Z,30
2017-08-24T05:10:38.843Z,30
2017-08-24T05:11:19.372Z,35
2017-08-24T05:11:59.910Z,35
2017-08-24T05:12:40.425Z,40
2017-08-24T05:13:20.950Z,40
2017-08-24T05:14:01.480Z,45
2017-08-24T05:14:42.017Z,45
2017-08-24T05:15:22.556Z,45
2017-08-24T05:16:03.093Z,50
2017-08-24T05:16:43.640Z,50
2017-08-24T05:17:24.178Z,50
2017-08-24T05:18:04.706Z,50
2017-08-24T05:18:45.226Z,50
2017-08-24T05:19:25.794Z,50
2017-08-24T05:20:06.330Z,50
2017-08-24T05:20:46.871Z,50
2017-08-24T05:21:27.395Z,50
2017-08-24T05:22:07.924Z,45
2017-08-24T05:22:48.456Z,45
2017-08-24T05:23:29.030Z,45
2017-08-24T05:24:09.580Z,40
2017-08-24T05:24:50.110Z,40
2017-08-24T05:25:30.646Z,35
2017-08-24T05:26:11.184Z,35
2017-08-24T05:26:51.720Z,35
2017-08-24T05:27:32.691Z,35
2017-08-24T05:28:15.543Z,40
2017-08-24T05:28:56.084Z,40
2017-08-24T05:29:36.623Z,40
2017-08-24T05:30:17.164Z,40
2017-08-24T05:30:57.705Z,45
2017-08-24T05:31:38.244Z,45
2017-08-24T05:32:18.792Z,45
2017-08-24T05:32:59.326Z,50
2017-08-24T05:33:39.872Z,50
2017-08-24T05:34:20.401Z,50
2017-08-24T05:35:00.932Z,50
2017-08-24T05:35:41.463Z,50
2017-08-24T05:36:22.003Z,55
2017-08-24T05:37:02.538Z,55
2017-08-24T05:37:43.069Z,60
2017-08-24T05:38:23.614Z,60
2017-08-24T05:40:58.237Z,60
2017-08-24T05:41:38.769Z,60
2017-08-24T05:42:19.308Z,60
2017-08-24T05:42:59.846Z,60
2017-08-24T05:43:40.387Z,65
2017-08-24T05:44:20.924Z,70
2017-08-24T05:45:01.466Z,75
2017-08-24T05:45:42.003Z,75
2017-08-24T05:46:22.540Z,75
2017-08-24T05:47:03.086Z,75
2017-08-24T05:47:43.612Z,75
2017-08-24T05:48:24.141Z,75
2017-08-24T05:49:04.674Z,75
2017-08-24T05:49:45.209Z,75
2017-08-24T05:50:25.742Z,75
2017-08-24T05:51:06.283Z,70
2017-08-24T05:51:46.846Z,70
2017-08-24T05:52:27.393Z,70
2017-08-24T05:53:07.922Z,70
2017-08-24T05:53:48.474Z,70
2017-08-24T05:54:29.005Z,70
2017-08-24T05:55:09.541Z,70
2017-08-24T05:55:50.113Z,70
2017-08-24T05:56:30.645Z,70
2017-08-24T05:57:11.172Z,75
2017-08-24T05:57:51.717Z,75
2017-08-24T05:58:32.253Z,75
2017-08-24T05:59:12.776Z,80
2017-08-24T05:59:53.307Z,85
2017-08-24T06:00:33.903Z,90
2017-08-24T06:01:14.437Z,90
2017-08-24T06:01:54.964Z,95
2017-08-24T06:02:35.506Z,95
2017-08-24T06:03:16.022Z,100
2017-08-24T06:03:56.557Z,100
2017-08-24T06:04:37.084Z,105
2017-08-24T06:05:17.609Z,105
2017-08-24T06:05:58.485Z,105
2017-08-24T06:06:39.238Z,105
2017-08-24T06:07:19.923Z,110
2017-08-24T06:08:00.526Z,110
2017-08-24T06:08:41.168Z,110
2017-08-24T06:09:21.702Z,115
2017-08-24T06:10:02.226Z,110
2017-08-24T06:10:42.765Z,105
2017-08-24T06:11:23.306Z,105
2017-08-24T06:12:03.835Z,105
2017-08-24T06:12:44.381Z,110
2017-08-24T06:13:24.928Z,110
2017-08-24T06:14:05.454Z,110
2017-08-24T06:14:46.000Z,110
2017-08-24T06:15:26.546Z,110
2017-08-24T06:16:07.083Z,115
2017-08-24T06:16:47.639Z,130
2017-08-24T06:17:28.153Z,130
2017-08-24T06:18:08.699Z,130
2017-08-24T06:18:49.239Z,130
2017-08-24T06:19:29.773Z,130
2017-08-24T06:20:10.334Z,120
2017-08-24T06:20:50.863Z,110
2017-08-24T06:21:31.407Z,100
2017-08-24T06:22:11.946Z,100
2017-08-24T06:22:52.492Z,100
2017-08-24T06:23:33.033Z,105
2017-08-24T06:24:13.571Z,105
2017-08-24T06:24:54.108Z,105
2017-08-24T06:25:34.648Z,110
2017-08-24T06:26:15.189Z,110
2017-08-24T06:26:55.716Z,110
2017-08-24T06:27:36.254Z,110
2017-08-24T06:28:16.802Z,115
2017-08-24T06:28:57.320Z,115
2017-08-24T06:29:37.857Z,120
2017-08-24T06:30:18.394Z,120
2017-08-24T06:30:58.929Z,125
2017-08-24T06:31:39.473Z,130
2017-08-24T06:32:20.020Z,125
2017-08-24T06:33:00.573Z,125
2017-08-24T06:33:41.112Z,125
2017-08-24T06:34:21.652Z,120
2017-08-24T06:35:02.176Z,120
2017-08-24T06:35:42.717Z,115
2017-08-24T06:36:23.256Z,115
2017-08-24T06:37:03.835Z,115
2017-08-24T06:37:44.390Z,115
2017-08-24T06:38:24.911Z,120
2017-08-24T06:39:05.415Z,130
2017-08-24T06:39:45.993Z,135
2017-08-24T06:40:26.526Z,140
2017-08-24T06:41:07.117Z,140
2017-08-24T06:41:48.724Z,135
2017-08-24T06:42:29.342Z,135
2017-08-24T06:43:09.880Z,140
2017-08-24T06:43:50.409Z,140
2017-08-24T06:44:30.951Z,145
2017-08-24T06:45:11.490Z,145
2017-08-24T06:45:52.022Z,140
2017-08-24T06:46:32.557Z,140
2017-08-24T06:47:13.095Z,140
2017-08-24T06:47:53.633Z,145
2017-08-24T06:48:34.179Z,150
2017-08-24T06:49:14.731Z,155
2017-08-24T06:49:57.145Z,160
2017-08-24T06:50:37.682Z,165
2017-08-24T06:51:18.227Z,170
2017-08-24T06:51:58.839Z,175
2017-08-24T06:52:39.370Z,180
2017-08-24T06:53:19.896Z,185
2017-08-24T06:54:00.428Z,190
2017-08-24T06:54:40.976Z,195
2017-08-24T06:55:21.502Z,200
2017-08-24T06:56:02.053Z,200
2017-08-24T06:56:42.596Z,200
2017-08-24T06:57:23.147Z,200
2017-08-24T06:58:03.673Z,200
2017-08-24T06:58:44.208Z,205
2017-08-24T06:59:24.745Z,210
2017-08-24T07:00:05.295Z,210
2017-08-24T07:00:45.832Z,195
2017-08-24T07:01:26.368Z,190
2017-08-24T07:02:06.904Z,185
2017-08-24T07:02:47.452Z,185
2017-08-24T07:03:27.989Z,185
2017-08-24T07:04:08.528Z,180
2017-08-24T07:04:49.067Z,180
2017-08-24T07:05:29.608Z,180
2017-08-24T07:06:10.150Z,180
2017-08-24T07:06:50.688Z,175
2017-08-24T07:07:31.226Z,175
2017-08-24T07:08:11.766Z,175
2017-08-24T07:08:52.298Z,180
2017-08-24T07:09:32.834Z,180
2017-08-24T07:10:13.372Z,185
2017-08-24T07:10:53.907Z,190
2017-08-24T07:11:34.446Z,195
2017-08-24T07:12:14.986Z,195
2017-08-24T07:12:55.528Z,195
2017-08-24T07:13:36.061Z,195
2017-08-24T07:14:16.600Z,210
2017-08-24T07:14:57.141Z,220
2017-08-24T07:15:37.677Z,235
2017-08-24T07:16:18.219Z,245
2017-08-24T07:16:58.755Z,250
2017-08-24T07:17:39.288Z,260
2017-08-24T07:18:19.831Z,270
2017-08-24T07:19:00.364Z,275
2017-08-24T07:19:40.896Z,285
2017-08-24T07:20:21.431Z,285
2017-08-24T07:21:01.973Z,280
2017-08-24T07:21:42.514Z,280
2017-08-24T07:22:23.052Z,280
2017-08-24T07:23:03.591Z,280
2017-08-24T07:23:44.132Z,280
2017-08-24T07:24:24.671Z,280
2017-08-24T07:25:05.241Z,280
2017-08-24T07:25:45.743Z,275
2017-08-24T07:26:26.281Z,270
2017-08-24T07:27:06.818Z,265
2017-08-24T07:27:47.357Z,260
2017-08-24T07:28:27.897Z,260
2017-08-24T07:29:08.425Z,270
2017-08-24T07:29:48.966Z,295
2017-08-24T07:30:29.506Z,300
2017-08-24T07:31:10.046Z,295
2017-08-24T07:31:50.587Z,290
2017-08-24T07:32:31.126Z,285
2017-08-24T07:33:11.659Z,285
2017-08-24T07:33:52.198Z,290
2017-08-24T07:34:32.738Z,290
2017-08-24T07:35:13.272Z,290
2017-08-24T07:35:53.817Z,295
2017-08-24T07:36:34.343Z,300
2017-08-24T07:37:14.880Z,300
2017-08-24T07:37:55.415Z,305
2017-08-24T07:38:35.954Z,310
2017-08-24T07:39:16.496Z,310
2017-08-24T07:39:57.033Z,320
2017-08-24T07:40:37.571Z,335
2017-08-24T07:41:18.112Z,360
2017-08-24T07:41:58.650Z,380
2017-08-24T07:42:39.190Z,440
2017-08-24T07:43:19.728Z,490
2017-08-24T07:44:00.273Z,550
2017-08-24T07:44:40.808Z,630
2017-08-24T07:45:21.345Z,645
2017-08-24T07:46:01.875Z,705
2017-08-24T07:46:42.410Z,705
2017-08-24T07:47:22.947Z,690
2017-08-24T07:48:03.488Z,655
2017-08-24T07:48:44.024Z,705
2017-08-24T07:49:24.562Z,690
2017-08-24T07:50:05.105Z,655
2017-08-24T07:50:45.645Z,685
2017-08-24T07:51:26.182Z,580
2017-08-24T07:52:06.721Z,835
2017-08-24T07:52:47.232Z,850
2017-08-24T07:53:27.765Z,880
2017-08-24T07:54:08.314Z,850
2017-08-24T07:54:48.839Z,845
2017-08-24T07:55:29.378Z,740
2017-08-24T07:56:09.914Z,695
2017-08-24T07:56:50.449Z,700
2017-08-24T07:57:30.990Z,670
2017-08-24T07:58:11.532Z,775
2017-08-24T07:58:52.070Z,910
2017-08-24T07:59:32.610Z,900
2017-08-24T08:00:13.155Z,910
2017-08-24T08:00:53.686Z,840
2017-08-24T08:01:34.223Z,885
2017-08-24T08:02:14.761Z,885
2017-08-24T08:02:55.300Z,765
2017-08-24T08:03:35.829Z,640
2017-08-24T08:04:16.389Z,585
2017-08-24T08:04:56.927Z,575
2017-08-24T08:05:37.468Z,585
2017-08-24T08:06:18.008Z,595
2017-08-24T08:06:58.552Z,685
2017-08-24T08:07:39.087Z,670
2017-08-24T08:08:19.626Z,555
2017-08-24T08:09:00.164Z,645
2017-08-24T08:09:40.705Z,630
2017-08-24T08:10:21.236Z,665
2017-08-24T08:11:01.784Z,615
2017-08-24T08:11:42.333Z,690
2017-08-24T08:12:22.872Z,725
2017-08-24T08:13:03.414Z,870
2017-08-24T08:13:43.955Z,980
2017-08-24T08:14:24.491Z,875
2017-08-24T08:15:05.029Z,1065
2017-08-24T08:15:45.571Z,1080
2017-08-24T08:16:26.097Z,1115
2017-08-24T08:17:06.637Z,1130
2017-08-24T08:17:47.179Z,1260
2017-08-24T08:18:27.719Z,1280
2017-08-24T08:19:08.259Z,1155
2017-08-24T08:19:48.795Z,1090
2017-08-24T08:20:29.334Z,1255
2017-08-24T08:21:09.879Z,1125
2017-08-24T08:21:50.420Z,840
2017-08-24T08:22:30.959Z,910
2017-08-24T08:23:11.484Z,735
2017-08-24T08:23:52.034Z,875
2017-08-24T08:24:32.576Z,1060
2017-08-24T08:25:13.112Z,1110
2017-08-24T08:25:53.643Z,1255
2017-08-24T08:26:34.182Z,1255
2017-08-24T08:27:14.723Z,965
2017-08-24T08:27:55.284Z,435
2017-08-24T08:28:35.824Z,1340
2017-08-24T08:29:16.362Z,1500
2017-08-24T08:29:56.900Z,1530
2017-08-24T08:30:37.448Z,495
2017-08-24T08:31:17.989Z,1290
2017-08-24T08:31:58.532Z,1440
2017-08-24T08:32:39.069Z,1135
2017-08-24T08:33:19.613Z,935
2017-08-24T08:34:00.150Z,810
2017-08-24T08:34:40.690Z,745
2017-08-24T08:35:21.232Z,730
2017-08-24T08:36:01.771Z,850
2017-08-24T08:36:42.308Z,1010
2017-08-24T08:37:22.859Z,1350
2017-08-24T08:38:03.401Z,1505
2017-08-24T08:38:43.939Z,1065
2017-08-24T08:39:24.491Z,750
2017-08-24T08:40:05.025Z,455
2017-08-24T08:40:45.568Z,1045
2017-08-24T08:41:26.119Z,1040
2017-08-24T08:42:06.660Z,695
2017-08-24T08:42:47.200Z,1025
2017-08-24T08:43:27.755Z,1035
2017-08-24T08:44:08.303Z,790
2017-08-24T08:44:48.858Z,1040
2017-08-24T08:45:29.385Z,1365
2017-08-24T08:46:09.963Z,1295
2017-08-24T08:46:50.470Z,1535
2017-08-24T08:47:31.013Z,1755
2017-08-24T08:48:11.557Z,1915
2017-08-24T08:48:52.098Z,1785
2017-08-24T08:49:32.641Z,1810
2017-08-24T08:50:13.171Z,1895
2017-08-24T08:50:53.717Z,1695
2017-08-24T08:51:34.260Z,1140
2017-08-24T08:52:14.802Z,1050
2017-08-24T08:52:55.344Z,750
2017-08-24T08:53:35.887Z,620
2017-08-24T08:54:16.426Z,600
2017-08-24T08:54:56.967Z,585
2017-08-24T08:55:37.508Z,570
2017-08-24T08:56:18.057Z,560
2017-08-24T08:56:58.608Z,550
2017-08-24T08:57:39.146Z,550
2017-08-24T08:58:19.675Z,575
2017-08-24T08:59:00.219Z,580
2017-08-24T08:59:40.767Z,615
2017-08-24T09:00:21.308Z,610
2017-08-24T09:01:01.849Z,615
2017-08-24T09:01:42.404Z,555
2017-08-24T09:02:22.949Z,790
2017-08-24T09:03:03.501Z,1175
2017-08-24T09:03:44.044Z,1655
2017-08-24T09:04:24.576Z,1740
2017-08-24T09:05:05.116Z,1730
2017-08-24T09:05:45.660Z,1510
2017-08-24T09:06:26.200Z,1120
2017-08-24T09:07:06.739Z,810
2017-08-24T09:07:47.290Z,725
2017-08-24T09:08:27.836Z,740
2017-08-24T09:09:08.378Z,755
2017-08-24T09:09:48.919Z,760
2017-08-24T09:10:29.463Z,785
2017-08-24T09:11:10.001Z,785
2017-08-24T09:11:50.547Z,745
2017-08-24T09:12:31.113Z,665
2017-08-24T09:13:11.640Z,705
2017-08-24T09:13:52.183Z,575
2017-08-24T09:14:32.729Z,495
2017-08-24T09:15:13.269Z,470
2017-08-24T09:15:53.811Z,500
2017-08-24T09:16:34.356Z,590
2017-08-24T09:17:14.890Z,605
2017-08-24T09:17:55.428Z,655
2017-08-24T09:18:35.967Z,695
2017-08-24T09:19:16.508Z,695
2017-08-24T09:19:57.054Z,750
2017-08-24T09:20:37.603Z,775
2017-08-24T09:21:18.136Z,760
2017-08-24T09:21:58.687Z,815
2017-08-24T09:22:39.223Z,830
2017-08-24T09:23:19.768Z,800
2017-08-24T09:24:00.309Z,695
2017-08-24T09:24:40.849Z,585
2017-08-24T09:25:21.393Z,680
2017-08-24T09:26:01.937Z,610
2017-08-24T09:26:42.479Z,610
2017-08-24T09:27:23.027Z,660
2017-08-24T09:28:03.559Z,835
2017-08-24T09:28:44.106Z,845
2017-08-24T09:29:24.644Z,785
2017-08-24T09:30:05.193Z,625
2017-08-24T09:30:45.738Z,595
2017-08-24T09:31:26.282Z,595
2017-08-24T09:32:06.836Z,595
2017-08-24T09:32:47.371Z,645
2017-08-24T09:33:27.914Z,705
2017-08-24T09:34:08.466Z,725
2017-08-24T09:34:49.006Z,825
2017-08-24T09:35:29.536Z,865
2017-08-24T09:36:10.086Z,865
2017-08-24T09:36:50.633Z,740
2017-08-24T09:37:31.179Z,825
2017-08-24T09:38:11.720Z,955
2017-08-24T09:38:52.262Z,1050
2017-08-24T09:39:32.811Z,1000
2017-08-24T09:40:13.354Z,1080
2017-08-24T09:40:53.904Z,1040
2017-08-24T09:41:34.445Z,1175
2017-08-24T09:42:14.987Z,995
2017-08-24T09:42:55.538Z,1000
2017-08-24T09:43:36.078Z,860
2017-08-24T09:44:16.617Z,970